LPAZ/SMA METAR and TAF weather

Enter ICAO airport designator
Station Type Date Time Source
LPAZ METAR 2018/12/11 17:30 UTC NOAA

LPAZ 111730Z 15013KT 9999 FEW010 SCT017 17/15 Q1024


Station Type Date Time Source
LPAZ Decoded METAR 2018/12/11 17:30 UTC NOAA

Santa Maria Acores , Portugal (LPAZ) 36-58N 025-10W 100M
Dec 11, 2018 - 12:30 PM EST / 2018.12.11 1730 UTC
Wind: from the SSE (150 degrees) at 15 MPH (13 KT):0
Visibility: greater than 7 mile(s):0
Sky conditions: partly cloudy
Temperature: 62 F (17 C)
Dew Point: 59 F (15 C)
Relative Humidity: 88%
Pressure (altimeter): 30.24 in. Hg (1024 hPa)
ob: LPAZ 111730Z 15013KT 9999 FEW010 SCT017 17/15 Q1024
cycle: 17

Station Type Date Time Source
LPAZ TAF 2018/12/11 18:18 UTC NOAA

TAF TAF LPAZ 111700Z 1118/1224 17015KT 9999 SCT015 BKN030 PROB30
TEMPO 1118/1121 5000 -RADZ BR SCT006 BKN012
BECMG 1121/1124 22023KT SCT005 BKN010
TEMPO 1200/1212 22025G35KT 3000 RADZ BR SCT002 BKN004
BECMG 1212/1214 31020KT SCT015
TEMPO 1212/1218 32025G35KT 8000 SHRA BKN015
BECMG 1220/1222 34010KT SCT030


Example: see airport list